Tangier Island — WDH2080 — position and weather

sailwx.info

Track history (hours):
 
Tides and Currents Weather Stations Pressure Air Temp Water Temp Dewpoint Dewpoint Depression Visibility Wind Speed Wind Dir Waves Ship Positions

Tangier Island

Owner: Vane Line Bunkering, Inc, Philadelphia, PA. More information available from US FCC via Universal Licensing System.

Last reported at 2017-Dec-04 10:30 UTC. Time now 2017-Dec-15 23:15 UTC.
Position N 27°54' W 082°26'.
Warning: this ship's position is 11 days out of date.

; draft 4.3 m.

Type: Tug. MMSI: 367594190.

Date/timePositionNaut miles runAvg speedWind from/ knotsBaromVisibWave heightAir tempDewpointWater temp
2017-Dec-04 10:30N 27°54' W 082°26'4 8.9
2017-Dec-04 10:00N 27°50' W 082°27'4 8.1
2017-Dec-04 09:30N 27°47' W 082°30'10 0.4
2017-Dec-03 11:20N 27°38' W 082°34'0 0.0
2017-Dec-03 06:13N 27°38' W 082°34'0 0.0
2017-Dec-03 05:55N 27°38' W 082°34'0 0.0
2017-Dec-03 05:28N 27°38' W 082°34'0 0.0
2017-Dec-03 04:58N 27°38' W 082°34'0 0.0
2017-Dec-03 03:37N 27°38' W 082°34'0 0.0
2017-Dec-03 03:28N 27°38' W 082°34'3 0.1
2017-Dec-01 00:21N 27°41' W 082°35'410.1
2017-Dec-01 00:00N 27°44' W 082°32'5 9.6
2017-Nov-30 23:30N 27°48' W 082°29'5 9.4
2017-Nov-30 23:00N 27°52' W 082°27'4 8.2
2017-Nov-30 22:30N 27°56' W 082°27'1 2.1
2017-Nov-30 22:00N 27°57' W 082°27'0 0.1
2017-Nov-30 21:30N 27°57' W 082°27'0 0.0
2017-Nov-30 21:00N 27°57' W 082°27'0 0.0
2017-Nov-30 20:30N 27°57' W 082°27'0 0.0
2017-Nov-30 20:00N 27°57' W 082°27'0 0.1
2017-Nov-30 19:30N 27°57' W 082°27'0 0.0
2017-Nov-30 19:00N 27°57' W 082°27'0 0.0
2017-Nov-30 18:30N 27°57' W 082°27'0 0.1
2017-Nov-30 18:00N 27°57' W 082°27'0 0.4
2017-Nov-30 17:30N 27°57' W 082°27'0 0.0
2017-Nov-30 16:58N 27°57' W 082°27'0 0.0
2017-Nov-30 16:28N 27°57' W 082°27'0 0.0
2017-Nov-30 15:58N 27°57' W 082°27'0 0.0
2017-Nov-30 15:28N 27°57' W 082°27'0 0.0
2017-Nov-30 14:58N 27°57' W 082°27'0 0.0
2017-Nov-30 14:28N 27°57' W 082°27'0 0.0
2017-Nov-30 13:58N 27°57' W 082°27'0 0.0
2017-Nov-30 13:28N 27°57' W 082°27'0 0.0
2017-Nov-30 12:58N 27°57' W 082°27'0 0.0
2017-Nov-30 12:28N 27°57' W 082°27'0 0.7
2017-Nov-30 11:59N 27°56' W 082°27'1 1.8
2017-Nov-30 11:31N 27°56' W 082°27'3 6.2
2017-Nov-30 11:00N 27°52' W 082°27'5 9.1
2017-Nov-30 10:31N 27°48' W 082°28'3 5.0
2017-Nov-30 09:53N 27°47' W 082°31'3 7.7
2017-Nov-30 09:30N 27°44' W 082°32'  
2017-Nov-27 10:59N 27°38' W 082°34'0 0.0
2017-Nov-27 10:29N 27°38' W 082°34'0 0.0
2017-Nov-27 09:59N 27°38' W 082°34'0 0.0
2017-Nov-27 09:29N 27°38' W 082°34'0 0.0
2017-Nov-27 08:59N 27°38' W 082°34'0 0.0
2017-Nov-27 08:29N 27°38' W 082°34'0 0.0
2017-Nov-27 07:59N 27°38' W 082°34'0 0.0
2017-Nov-27 07:29N 27°38' W 082°34'3 0.3
2017-Nov-26 21:14N 27°41' W 082°35'2 9.2
2017-Nov-26 21:00N 27°42' W 082°33'5 9.4
2017-Nov-26 20:30N 27°47' W 082°31'5 9.3
2017-Nov-26 20:00N 27°49' W 082°27'5 9.8
2017-Nov-26 19:30N 27°54' W 082°26'3 5.4
2017-Nov-26 19:00N 27°57' W 082°27'0 0.4
2017-Nov-26 18:29N 27°57' W 082°27'0 0.0
2017-Nov-26 17:59N 27°57' W 082°27'0 0.0
2017-Nov-26 17:30N 27°57' W 082°27'0 0.0
2017-Nov-26 17:00N 27°57' W 082°27'0 0.0
2017-Nov-26 16:30N 27°57' W 082°27'0 0.0
2017-Nov-26 16:00N 27°57' W 082°27'0 0.0
2017-Nov-26 15:30N 27°57' W 082°27'0 0.0
2017-Nov-26 15:00N 27°57' W 082°27'0 0.0
2017-Nov-26 14:30N 27°57' W 082°27'0 0.0
2017-Nov-26 14:00N 27°57' W 082°27'0 0.0
2017-Nov-26 13:30N 27°57' W 082°27'0 0.5
2017-Nov-26 13:00N 27°57' W 082°27'0 0.2
2017-Nov-26 12:30N 27°57' W 082°27'0 0.0
2017-Nov-26 12:00N 27°57' W 082°27'0 0.4
2017-Nov-26 11:30N 27°56' W 082°27'4 8.8
2017-Nov-26 11:00N 27°52' W 082°27'4 8.8
2017-Nov-26 10:30N 27°48' W 082°29'4 8.5
2017-Nov-26 10:00N 27°45' W 082°32'  
Track history (hours):
 
Tides and Currents Weather Stations Pressure Air Temp Water Temp Dewpoint Dewpoint Depression Visibility Wind Speed Wind Dir Waves Ship Positions

Tangier Island

Owner: Vane Line Bunkering, Inc, Philadelphia, PA. More information available from US FCC via Universal Licensing System.

Last reported at 2017-Dec-04 10:30 UTC. Time now 2017-Dec-15 23:15 UTC.
Position N 27°54' W 082°26'.
Warning: this ship's position is 11 days out of date.

; draft 4.3 m.

Type: Tug. MMSI: 367594190.

Date/timePositionNaut miles runAvg speedWind from/ knotsBaromVisibWave heightAir tempDewpointWater temp
2017-Dec-04 10:30N 27°54' W 082°26'4 8.9
2017-Dec-04 10:00N 27°50' W 082°27'4 8.1
2017-Dec-04 09:30N 27°47' W 082°30'10 0.4
2017-Dec-03 11:20N 27°38' W 082°34'0 0.0
2017-Dec-03 06:13N 27°38' W 082°34'0 0.0
2017-Dec-03 05:55N 27°38' W 082°34'0 0.0
2017-Dec-03 05:28N 27°38' W 082°34'0 0.0
2017-Dec-03 04:58N 27°38' W 082°34'0 0.0
2017-Dec-03 03:37N 27°38' W 082°34'0 0.0
2017-Dec-03 03:28N 27°38' W 082°34'3 0.1
2017-Dec-01 00:21N 27°41' W 082°35'410.1
2017-Dec-01 00:00N 27°44' W 082°32'5 9.6
2017-Nov-30 23:30N 27°48' W 082°29'5 9.4
2017-Nov-30 23:00N 27°52' W 082°27'4 8.2
2017-Nov-30 22:30N 27°56' W 082°27'1 2.1
2017-Nov-30 22:00N 27°57' W 082°27'0 0.1
2017-Nov-30 21:30N 27°57' W 082°27'0 0.0
2017-Nov-30 21:00N 27°57' W 082°27'0 0.0
2017-Nov-30 20:30N 27°57' W 082°27'0 0.0
2017-Nov-30 20:00N 27°57' W 082°27'0 0.1
2017-Nov-30 19:30N 27°57' W 082°27'0 0.0
2017-Nov-30 19:00N 27°57' W 082°27'0 0.0
2017-Nov-30 18:30N 27°57' W 082°27'0 0.1
2017-Nov-30 18:00N 27°57' W 082°27'0 0.4
2017-Nov-30 17:30N 27°57' W 082°27'0 0.0
2017-Nov-30 16:58N 27°57' W 082°27'0 0.0
2017-Nov-30 16:28N 27°57' W 082°27'0 0.0
2017-Nov-30 15:58N 27°57' W 082°27'0 0.0
2017-Nov-30 15:28N 27°57' W 082°27'0 0.0
2017-Nov-30 14:58N 27°57' W 082°27'0 0.0
2017-Nov-30 14:28N 27°57' W 082°27'0 0.0
2017-Nov-30 13:58N 27°57' W 082°27'0 0.0
2017-Nov-30 13:28N 27°57' W 082°27'0 0.0
2017-Nov-30 12:58N 27°57' W 082°27'0 0.0
2017-Nov-30 12:28N 27°57' W 082°27'0 0.7
2017-Nov-30 11:59N 27°56' W 082°27'1 1.8
2017-Nov-30 11:31N 27°56' W 082°27'3 6.2
2017-Nov-30 11:00N 27°52' W 082°27'5 9.1
2017-Nov-30 10:31N 27°48' W 082°28'3 5.0
2017-Nov-30 09:53N 27°47' W 082°31'3 7.7
2017-Nov-30 09:30N 27°44' W 082°32'  
2017-Nov-27 10:59N 27°38' W 082°34'0 0.0
2017-Nov-27 10:29N 27°38' W 082°34'0 0.0
2017-Nov-27 09:59N 27°38' W 082°34'0 0.0
2017-Nov-27 09:29N 27°38' W 082°34'0 0.0
2017-Nov-27 08:59N 27°38' W 082°34'0 0.0
2017-Nov-27 08:29N 27°38' W 082°34'0 0.0
2017-Nov-27 07:59N 27°38' W 082°34'0 0.0
2017-Nov-27 07:29N 27°38' W 082°34'3 0.3
2017-Nov-26 21:14N 27°41' W 082°35'2 9.2
2017-Nov-26 21:00N 27°42' W 082°33'5 9.4
2017-Nov-26 20:30N 27°47' W 082°31'5 9.3
2017-Nov-26 20:00N 27°49' W 082°27'5 9.8
2017-Nov-26 19:30N 27°54' W 082°26'3 5.4
2017-Nov-26 19:00N 27°57' W 082°27'0 0.4
2017-Nov-26 18:29N 27°57' W 082°27'0 0.0
2017-Nov-26 17:59N 27°57' W 082°27'0 0.0
2017-Nov-26 17:30N 27°57' W 082°27'0 0.0
2017-Nov-26 17:00N 27°57' W 082°27'0 0.0
2017-Nov-26 16:30N 27°57' W 082°27'0 0.0
2017-Nov-26 16:00N 27°57' W 082°27'0 0.0
2017-Nov-26 15:30N 27°57' W 082°27'0 0.0
2017-Nov-26 15:00N 27°57' W 082°27'0 0.0
2017-Nov-26 14:30N 27°57' W 082°27'0 0.0
2017-Nov-26 14:00N 27°57' W 082°27'0 0.0
2017-Nov-26 13:30N 27°57' W 082°27'0 0.5
2017-Nov-26 13:00N 27°57' W 082°27'0 0.2
2017-Nov-26 12:30N 27°57' W 082°27'0 0.0
2017-Nov-26 12:00N 27°57' W 082°27'0 0.4
2017-Nov-26 11:30N 27°56' W 082°27'4 8.8
2017-Nov-26 11:00N 27°52' W 082°27'4 8.8
2017-Nov-26 10:30N 27°48' W 082°29'4 8.5
2017-Nov-26 10:00N 27°45' W 082°32'  

Dump ship's entire track history